sensor_id;sensor_type;location;lat;lon;timestamp;P1;durP1;ratioP1;P2;durP2;ratioP2
65656;SDS011;57397;50.096;14.404;2023-04-25T00:00:15;2.70;;;1.88;;
65656;SDS011;57397;50.096;14.404;2023-04-25T00:02:41;2.50;;;1.80;;
65656;SDS011;57397;50.096;14.404;2023-04-25T00:05:07;1.83;;;1.63;;
65656;SDS011;57397;50.096;14.404;2023-04-25T00:07:33;2.83;;;1.70;;
65656;SDS011;57397;50.096;14.404;2023-04-25T00:10:00;1.90;;;1.60;;
65656;SDS011;57397;50.096;14.404;2023-04-25T00:12:25;3.05;;;1.60;;
65656;SDS011;57397;50.096;14.404;2023-04-25T00:14:53;2.25;;;1.52;;
65656;SDS011;57397;50.096;14.404;2023-04-25T00:17:22;2.08;;;1.67;;
65656;SDS011;57397;50.096;14.404;2023-04-25T00:19:49;2.40;;;1.52;;
65656;SDS011;57397;50.096;14.404;2023-04-25T00:22:15;2.83;;;1.73;;
65656;SDS011;57397;50.096;14.404;2023-04-25T00:24:41;1.70;;;1.50;;
65656;SDS011;57397;50.096;14.404;2023-04-25T00:27:07;2.90;;;1.70;;
65656;SDS011;57397;50.096;14.404;2023-04-25T00:29:32;2.60;;;1.70;;
65656;SDS011;57397;50.096;14.404;2023-04-25T00:31:59;2.30;;;1.38;;
65656;SDS011;57397;50.096;14.404;2023-04-25T00:34:24;2.30;;;1.55;;
65656;SDS011;57397;50.096;14.404;2023-04-25T00:36:50;2.88;;;1.60;;
65656;SDS011;57397;50.096;14.404;2023-04-25T00:39:15;2.00;;;1.40;;
65656;SDS011;57397;50.096;14.404;2023-04-25T00:41:40;1.75;;;1.50;;
65656;SDS011;57397;50.096;14.404;2023-04-25T00:44:08;2.40;;;1.85;;
65656;SDS011;57397;50.096;14.404;2023-04-25T00:46:35;2.20;;;1.60;;
65656;SDS011;57397;50.096;14.404;2023-04-25T00:49:00;2.58;;;1.60;;
65656;SDS011;57397;50.096;14.404;2023-04-25T00:51:26;2.20;;;1.65;;
65656;SDS011;57397;50.096;14.404;2023-04-25T00:53:52;2.58;;;1.65;;
65656;SDS011;57397;50.096;14.404;2023-04-25T00:56:17;2.00;;;1.52;;
65656;SDS011;57397;50.096;14.404;2023-04-25T00:58:43;2.28;;;1.80;;
65656;SDS011;57397;50.096;14.404;2023-04-25T01:01:09;2.08;;;1.63;;
65656;SDS011;57397;50.096;14.404;2023-04-25T01:03:36;2.10;;;1.52;;
65656;SDS011;57397;50.096;14.404;2023-04-25T01:06:06;2.60;;;1.58;;
65656;SDS011;57397;50.096;14.404;2023-04-25T01:08:33;1.80;;;1.52;;
65656;SDS011;57397;50.096;14.404;2023-04-25T01:10:59;2.28;;;1.70;;
65656;SDS011;57397;50.096;14.404;2023-04-25T01:13:24;1.77;;;1.48;;
65656;SDS011;57397;50.096;14.404;2023-04-25T01:15:50;2.45;;;1.70;;
65656;SDS011;57397;50.096;14.404;2023-04-25T01:18:16;2.20;;;1.40;;
65656;SDS011;57397;50.096;14.404;2023-04-25T01:20:41;2.15;;;1.67;;
65656;SDS011;57397;50.096;14.404;2023-04-25T01:23:07;2.10;;;1.60;;
65656;SDS011;57397;50.096;14.404;2023-04-25T01:25:33;1.90;;;1.50;;
65656;SDS011;57397;50.096;14.404;2023-04-25T01:27:58;2.83;;;1.70;;
65656;SDS011;57397;50.096;14.404;2023-04-25T01:30:28;2.33;;;1.48;;
65656;SDS011;57397;50.096;14.404;2023-04-25T01:32:57;1.90;;;1.60;;
65656;SDS011;57397;50.096;14.404;2023-04-25T01:35:23;1.92;;;1.50;;
65656;SDS011;57397;50.096;14.404;2023-04-25T01:37:49;1.85;;;1.45;;
65656;SDS011;57397;50.096;14.404;2023-04-25T01:40:15;1.80;;;1.40;;
65656;SDS011;57397;50.096;14.404;2023-04-25T01:42:41;2.35;;;1.60;;
65656;SDS011;57397;50.096;14.404;2023-04-25T01:45:08;2.25;;;1.60;;
65656;SDS011;57397;50.096;14.404;2023-04-25T01:47:34;2.08;;;1.42;;
65656;SDS011;57397;50.096;14.404;2023-04-25T01:50:00;2.00;;;1.70;;
65656;SDS011;57397;50.096;14.404;2023-04-25T01:52:27;2.63;;;1.52;;
65656;SDS011;57397;50.096;14.404;2023-04-25T01:54:52;2.33;;;1.70;;
65656;SDS011;57397;50.096;14.404;2023-04-25T01:57:18;2.17;;;1.48;;
65656;SDS011;57397;50.096;14.404;2023-04-25T01:59:43;1.70;;;1.50;;
65656;SDS011;57397;50.096;14.404;2023-04-25T02:02:09;2.67;;;1.80;;
65656;SDS011;57397;50.096;14.404;2023-04-25T02:04:35;2.20;;;1.45;;
65656;SDS011;57397;50.096;14.404;2023-04-25T02:07:00;1.90;;;1.58;;
65656;SDS011;57397;50.096;14.404;2023-04-25T02:09:26;2.15;;;1.67;;
65656;SDS011;57397;50.096;14.404;2023-04-25T02:11:52;1.90;;;1.50;;
65656;SDS011;57397;50.096;14.404;2023-04-25T02:14:18;1.92;;;1.50;;
65656;SDS011;57397;50.096;14.404;2023-04-25T02:16:43;1.85;;;1.58;;
65656;SDS011;57397;50.096;14.404;2023-04-25T02:19:09;2.05;;;1.60;;
65656;SDS011;57397;50.096;14.404;2023-04-25T02:21:35;2.22;;;1.50;;
65656;SDS011;57397;50.096;14.404;2023-04-25T02:24:01;2.40;;;1.60;;
65656;SDS011;57397;50.096;14.404;2023-04-25T02:26:27;2.53;;;1.50;;
65656;SDS011;57397;50.096;14.404;2023-04-25T02:28:52;2.13;;;1.63;;
65656;SDS011;57397;50.096;14.404;2023-04-25T02:31:18;2.35;;;1.60;;
65656;SDS011;57397;50.096;14.404;2023-04-25T02:33:43;2.50;;;1.40;;
65656;SDS011;57397;50.096;14.404;2023-04-25T02:36:09;2.67;;;1.77;;
65656;SDS011;57397;50.096;14.404;2023-04-25T02:38:34;2.38;;;1.73;;
65656;SDS011;57397;50.096;14.404;2023-04-25T02:41:00;1.83;;;1.42;;
65656;SDS011;57397;50.096;14.404;2023-04-25T02:43:26;3.08;;;1.70;;
65656;SDS011;57397;50.096;14.404;2023-04-25T02:45:51;2.95;;;1.75;;
65656;SDS011;57397;50.096;14.404;2023-04-25T02:48:17;1.77;;;1.50;;
65656;SDS011;57397;50.096;14.404;2023-04-25T02:50:42;1.95;;;1.63;;
65656;SDS011;57397;50.096;14.404;2023-04-25T02:53:08;1.98;;;1.52;;
65656;SDS011;57397;50.096;14.404;2023-04-25T02:55:33;2.15;;;1.55;;
65656;SDS011;57397;50.096;14.404;2023-04-25T02:57:59;2.00;;;1.67;;
65656;SDS011;57397;50.096;14.404;2023-04-25T03:00:24;2.80;;;1.70;;
65656;SDS011;57397;50.096;14.404;2023-04-25T03:02:50;2.72;;;1.70;;
65656;SDS011;57397;50.096;14.404;2023-04-25T03:05:16;1.95;;;1.48;;
65656;SDS011;57397;50.096;14.404;2023-04-25T03:07:42;1.77;;;1.50;;
65656;SDS011;57397;50.096;14.404;2023-04-25T03:10:08;2.17;;;1.63;;
65656;SDS011;57397;50.096;14.404;2023-04-25T03:12:34;2.47;;;1.45;;
65656;SDS011;57397;50.096;14.404;2023-04-25T03:15:00;1.83;;;1.40;;
65656;SDS011;57397;50.096;14.404;2023-04-25T03:17:26;2.00;;;1.60;;
65656;SDS011;57397;50.096;14.404;2023-04-25T03:19:51;1.80;;;1.60;;
65656;SDS011;57397;50.096;14.404;2023-04-25T03:22:17;1.90;;;1.65;;
65656;SDS011;57397;50.096;14.404;2023-04-25T03:24:42;2.30;;;1.67;;
65656;SDS011;57397;50.096;14.404;2023-04-25T03:27:08;1.90;;;1.50;;
65656;SDS011;57397;50.096;14.404;2023-04-25T03:29:33;2.10;;;1.60;;
65656;SDS011;57397;50.096;14.404;2023-04-25T03:31:59;3.08;;;1.77;;
65656;SDS011;57397;50.096;14.404;2023-04-25T03:34:25;2.00;;;1.45;;
65656;SDS011;57397;50.096;14.404;2023-04-25T03:36:51;1.77;;;1.60;;
65656;SDS011;57397;50.096;14.404;2023-04-25T03:39:16;2.28;;;1.60;;
65656;SDS011;57397;50.096;14.404;2023-04-25T03:41:42;2.28;;;1.55;;
65656;SDS011;57397;50.096;14.404;2023-04-25T03:44:07;3.15;;;1.50;;
65656;SDS011;57397;50.096;14.404;2023-04-25T03:46:33;1.52;;;1.30;;
65656;SDS011;57397;50.096;14.404;2023-04-25T03:48:58;1.70;;;1.35;;
65656;SDS011;57397;50.096;14.404;2023-04-25T03:51:24;2.55;;;1.75;;
65656;SDS011;57397;50.096;14.404;2023-04-25T03:53:51;2.33;;;1.63;;
65656;SDS011;57397;50.096;14.404;2023-04-25T03:56:17;2.13;;;1.60;;
65656;SDS011;57397;50.096;14.404;2023-04-25T03:58:42;1.83;;;1.50;;
65656;SDS011;57397;50.096;14.404;2023-04-25T04:01:08;2.30;;;1.60;;
65656;SDS011;57397;50.096;14.404;2023-04-25T04:03:34;2.10;;;1.60;;
65656;SDS011;57397;50.096;14.404;2023-04-25T04:06:05;2.35;;;1.90;;
65656;SDS011;57397;50.096;14.404;2023-04-25T04:08:31;3.33;;;1.90;;
65656;SDS011;57397;50.096;14.404;2023-04-25T04:10:58;2.00;;;1.67;;
65656;SDS011;57397;50.096;14.404;2023-04-25T04:13:25;1.98;;;1.60;;
65656;SDS011;57397;50.096;14.404;2023-04-25T04:15:51;2.65;;;1.70;;
65656;SDS011;57397;50.096;14.404;2023-04-25T04:18:16;2.40;;;1.88;;
65656;SDS011;57397;50.096;14.404;2023-04-25T04:20:42;1.88;;;1.55;;
65656;SDS011;57397;50.096;14.404;2023-04-25T04:23:07;2.45;;;1.90;;
65656;SDS011;57397;50.096;14.404;2023-04-25T04:25:33;1.92;;;1.63;;
65656;SDS011;57397;50.096;14.404;2023-04-25T04:27:59;3.05;;;1.63;;
65656;SDS011;57397;50.096;14.404;2023-04-25T04:30:26;2.28;;;1.60;;
65656;SDS011;57397;50.096;14.404;2023-04-25T04:32:54;2.33;;;1.60;;
65656;SDS011;57397;50.096;14.404;2023-04-25T04:35:20;1.88;;;1.50;;
65656;SDS011;57397;50.096;14.404;2023-04-25T04:37:46;2.97;;;1.60;;
65656;SDS011;57397;50.096;14.404;2023-04-25T04:40:13;3.47;;;1.80;;
65656;SDS011;57397;50.096;14.404;2023-04-25T04:42:40;2.30;;;1.83;;
65656;SDS011;57397;50.096;14.404;2023-04-25T04:45:07;1.88;;;1.60;;
65656;SDS011;57397;50.096;14.404;2023-04-25T04:47:33;2.50;;;1.95;;
65656;SDS011;57397;50.096;14.404;2023-04-25T04:49:59;1.83;;;1.55;;
65656;SDS011;57397;50.096;14.404;2023-04-25T04:52:24;2.50;;;1.70;;
65656;SDS011;57397;50.096;14.404;2023-04-25T04:54:50;2.10;;;1.50;;
65656;SDS011;57397;50.096;14.404;2023-04-25T04:57:16;2.50;;;1.83;;
65656;SDS011;57397;50.096;14.404;2023-04-25T04:59:44;1.95;;;1.58;;
65656;SDS011;57397;50.096;14.404;2023-04-25T05:02:10;2.30;;;1.60;;
65656;SDS011;57397;50.096;14.404;2023-04-25T05:04:35;1.63;;;1.38;;
65656;SDS011;57397;50.096;14.404;2023-04-25T05:07:01;1.90;;;1.40;;
65656;SDS011;57397;50.096;14.404;2023-04-25T05:09:26;2.05;;;1.45;;
65656;SDS011;57397;50.096;14.404;2023-04-25T05:11:52;2.20;;;1.52;;
65656;SDS011;57397;50.096;14.404;2023-04-25T05:14:17;1.92;;;1.40;;
65656;SDS011;57397;50.096;14.404;2023-04-25T05:16:43;2.00;;;1.60;;
65656;SDS011;57397;50.096;14.404;2023-04-25T05:19:09;2.20;;;1.60;;
65656;SDS011;57397;50.096;14.404;2023-04-25T05:21:34;1.88;;;1.60;;
65656;SDS011;57397;50.096;14.404;2023-04-25T05:24:00;2.85;;;1.55;;
65656;SDS011;57397;50.096;14.404;2023-04-25T05:26:26;1.65;;;1.40;;
65656;SDS011;57397;50.096;14.404;2023-04-25T05:28:56;1.92;;;1.67;;
65656;SDS011;57397;50.096;14.404;2023-04-25T05:31:25;2.05;;;1.40;;
65656;SDS011;57397;50.096;14.404;2023-04-25T05:33:50;3.08;;;1.80;;
65656;SDS011;57397;50.096;14.404;2023-04-25T05:36:17;2.40;;;1.70;;
65656;SDS011;57397;50.096;14.404;2023-04-25T05:38:43;2.17;;;1.65;;
65656;SDS011;57397;50.096;14.404;2023-04-25T05:41:09;2.13;;;1.52;;
65656;SDS011;57397;50.096;14.404;2023-04-25T05:43:34;2.08;;;1.45;;
65656;SDS011;57397;50.096;14.404;2023-04-25T05:46:00;2.05;;;1.60;;
65656;SDS011;57397;50.096;14.404;2023-04-25T05:48:26;1.95;;;1.67;;
65656;SDS011;57397;50.096;14.404;2023-04-25T05:50:51;2.38;;;1.60;;
65656;SDS011;57397;50.096;14.404;2023-04-25T05:53:17;2.30;;;1.60;;
65656;SDS011;57397;50.096;14.404;2023-04-25T05:55:43;1.77;;;1.45;;
65656;SDS011;57397;50.096;14.404;2023-04-25T05:58:09;2.88;;;1.60;;
65656;SDS011;57397;50.096;14.404;2023-04-25T06:00:34;2.20;;;1.60;;
65656;SDS011;57397;50.096;14.404;2023-04-25T06:03:00;2.05;;;1.50;;
65656;SDS011;57397;50.096;14.404;2023-04-25T06:05:26;1.75;;;1.55;;
65656;SDS011;57397;50.096;14.404;2023-04-25T06:07:51;2.03;;;1.60;;
65656;SDS011;57397;50.096;14.404;2023-04-25T06:10:17;1.90;;;1.60;;
65656;SDS011;57397;50.096;14.404;2023-04-25T06:12:43;2.00;;;1.70;;
65656;SDS011;57397;50.096;14.404;2023-04-25T06:15:09;1.80;;;1.60;;
65656;SDS011;57397;50.096;14.404;2023-04-25T06:17:35;1.80;;;1.40;;
65656;SDS011;57397;50.096;14.404;2023-04-25T06:20:00;3.35;;;1.80;;
65656;SDS011;57397;50.096;14.404;2023-04-25T06:22:27;2.20;;;1.50;;
65656;SDS011;57397;50.096;14.404;2023-04-25T06:24:52;2.05;;;1.52;;
65656;SDS011;57397;50.096;14.404;2023-04-25T06:27:18;2.03;;;1.58;;
65656;SDS011;57397;50.096;14.404;2023-04-25T06:29:43;2.13;;;1.60;;
65656;SDS011;57397;50.096;14.404;2023-04-25T06:32:09;1.92;;;1.38;;
65656;SDS011;57397;50.096;14.404;2023-04-25T06:34:34;1.77;;;1.45;;
65656;SDS011;57397;50.096;14.404;2023-04-25T06:37:00;1.80;;;1.48;;
65656;SDS011;57397;50.096;14.404;2023-04-25T06:39:26;2.30;;;1.50;;
65656;SDS011;57397;50.096;14.404;2023-04-25T06:41:51;1.67;;;1.30;;
65656;SDS011;57397;50.096;14.404;2023-04-25T06:44:18;2.08;;;1.30;;
65656;SDS011;57397;50.096;14.404;2023-04-25T06:46:43;1.58;;;1.30;;
65656;SDS011;57397;50.096;14.404;2023-04-25T06:49:09;1.45;;;1.10;;
65656;SDS011;57397;50.096;14.404;2023-04-25T06:51:34;1.42;;;1.15;;
65656;SDS011;57397;50.096;14.404;2023-04-25T06:54:03;1.60;;;1.20;;
65656;SDS011;57397;50.096;14.404;2023-04-25T06:56:30;2.15;;;1.40;;
65656;SDS011;57397;50.096;14.404;2023-04-25T06:58:56;1.20;;;1.10;;
65656;SDS011;57397;50.096;14.404;2023-04-25T07:01:21;1.88;;;1.27;;
65656;SDS011;57397;50.096;14.404;2023-04-25T07:03:47;1.80;;;1.40;;
65656;SDS011;57397;50.096;14.404;2023-04-25T07:06:12;1.80;;;1.30;;
65656;SDS011;57397;50.096;14.404;2023-04-25T07:08:38;1.48;;;1.13;;
65656;SDS011;57397;50.096;14.404;2023-04-25T07:11:03;1.60;;;1.10;;
65656;SDS011;57397;50.096;14.404;2023-04-25T07:13:29;1.50;;;1.20;;
65656;SDS011;57397;50.096;14.404;2023-04-25T07:15:55;1.70;;;1.15;;
65656;SDS011;57397;50.096;14.404;2023-04-25T07:18:22;1.90;;;1.10;;
65656;SDS011;57397;50.096;14.404;2023-04-25T07:20:47;1.60;;;1.20;;
65656;SDS011;57397;50.096;14.404;2023-04-25T07:23:13;1.50;;;1.00;;
65656;SDS011;57397;50.096;14.404;2023-04-25T07:25:38;1.42;;;1.27;;
65656;SDS011;57397;50.096;14.404;2023-04-25T07:28:04;2.83;;;1.30;;
65656;SDS011;57397;50.096;14.404;2023-04-25T07:30:30;1.45;;;1.17;;
65656;SDS011;57397;50.096;14.404;2023-04-25T07:32:55;1.15;;;1.02;;
65656;SDS011;57397;50.096;14.404;2023-04-25T07:35:21;1.52;;;1.08;;
65656;SDS011;57397;50.096;14.404;2023-04-25T07:37:46;1.10;;;0.98;;
65656;SDS011;57397;50.096;14.404;2023-04-25T07:40:12;1.45;;;1.20;;
65656;SDS011;57397;50.096;14.404;2023-04-25T07:42:37;1.50;;;1.17;;
65656;SDS011;57397;50.096;14.404;2023-04-25T07:45:03;1.55;;;1.25;;
65656;SDS011;57397;50.096;14.404;2023-04-25T07:47:29;1.67;;;1.10;;
65656;SDS011;57397;50.096;14.404;2023-04-25T07:49:54;2.30;;;1.20;;
65656;SDS011;57397;50.096;14.404;2023-04-25T07:52:21;1.20;;;1.05;;
65656;SDS011;57397;50.096;14.404;2023-04-25T07:54:46;1.50;;;1.08;;
65656;SDS011;57397;50.096;14.404;2023-04-25T07:57:12;1.30;;;1.20;;
65656;SDS011;57397;50.096;14.404;2023-04-25T07:59:39;1.55;;;1.10;;
65656;SDS011;57397;50.096;14.404;2023-04-25T08:02:05;2.15;;;1.10;;
65656;SDS011;57397;50.096;14.404;2023-04-25T08:04:30;1.35;;;1.00;;
65656;SDS011;57397;50.096;14.404;2023-04-25T08:06:56;2.28;;;1.40;;
65656;SDS011;57397;50.096;14.404;2023-04-25T08:09:22;1.70;;;1.15;;
65656;SDS011;57397;50.096;14.404;2023-04-25T08:11:47;1.60;;;1.25;;
65656;SDS011;57397;50.096;14.404;2023-04-25T08:14:13;2.42;;;1.40;;
65656;SDS011;57397;50.096;14.404;2023-04-25T08:16:39;1.58;;;1.25;;
65656;SDS011;57397;50.096;14.404;2023-04-25T08:19:04;2.15;;;1.17;;
65656;SDS011;57397;50.096;14.404;2023-04-25T08:21:30;1.70;;;1.10;;
65656;SDS011;57397;50.096;14.404;2023-04-25T08:23:57;2.03;;;1.23;;
65656;SDS011;57397;50.096;14.404;2023-04-25T08:26:23;1.77;;;1.08;;
65656;SDS011;57397;50.096;14.404;2023-04-25T08:28:49;2.38;;;1.30;;
65656;SDS011;57397;50.096;14.404;2023-04-25T08:31:15;1.60;;;1.23;;
65656;SDS011;57397;50.096;14.404;2023-04-25T08:33:40;1.92;;;1.20;;
65656;SDS011;57397;50.096;14.404;2023-04-25T08:36:06;1.48;;;1.20;;
65656;SDS011;57397;50.096;14.404;2023-04-25T08:38:32;1.70;;;1.30;;
65656;SDS011;57397;50.096;14.404;2023-04-25T08:40:57;1.30;;;1.20;;
65656;SDS011;57397;50.096;14.404;2023-04-25T08:43:25;3.35;;;1.30;;
65656;SDS011;57397;50.096;14.404;2023-04-25T08:45:51;1.95;;;1.20;;
65656;SDS011;57397;50.096;14.404;2023-04-25T08:48:19;1.70;;;1.23;;
65656;SDS011;57397;50.096;14.404;2023-04-25T08:50:45;1.20;;;1.10;;
65656;SDS011;57397;50.096;14.404;2023-04-25T08:53:15;1.30;;;1.20;;
65656;SDS011;57397;50.096;14.404;2023-04-25T08:55:45;1.20;;;1.10;;
65656;SDS011;57397;50.096;14.404;2023-04-25T08:58:11;1.33;;;1.10;;
65656;SDS011;57397;50.096;14.404;2023-04-25T09:00:37;1.42;;;1.15;;
65656;SDS011;57397;50.096;14.404;2023-04-25T09:03:02;1.50;;;1.20;;
65656;SDS011;57397;50.096;14.404;2023-04-25T09:05:28;1.48;;;1.10;;
65656;SDS011;57397;50.096;14.404;2023-04-25T09:07:55;1.30;;;1.10;;
65656;SDS011;57397;50.096;14.404;2023-04-25T09:10:21;1.75;;;1.30;;
65656;SDS011;57397;50.096;14.404;2023-04-25T09:13:06;1.60;;;1.10;;
65656;SDS011;57397;50.096;14.404;2023-04-25T09:18:13;2.28;;;1.20;;
65656;SDS011;57397;50.096;14.404;2023-04-25T09:20:42;2.15;;;1.20;;
65656;SDS011;57397;50.096;14.404;2023-04-25T09:23:08;1.30;;;1.13;;
65656;SDS011;57397;50.096;14.404;2023-04-25T09:25:34;2.08;;;1.10;;
65656;SDS011;57397;50.096;14.404;2023-04-25T09:28:04;2.05;;;1.25;;
65656;SDS011;57397;50.096;14.404;2023-04-25T09:30:31;1.20;;;1.10;;
65656;SDS011;57397;50.096;14.404;2023-04-25T09:33:08;1.40;;;1.10;;
65656;SDS011;57397;50.096;14.404;2023-04-25T09:35:35;2.03;;;1.20;;
65656;SDS011;57397;50.096;14.404;2023-04-25T09:38:11;1.40;;;1.20;;
65656;SDS011;57397;50.096;14.404;2023-04-25T09:40:41;1.60;;;1.30;;
65656;SDS011;57397;50.096;14.404;2023-04-25T09:43:28;1.63;;;1.20;;
65656;SDS011;57397;50.096;14.404;2023-04-25T09:45:54;1.30;;;1.10;;
65656;SDS011;57397;50.096;14.404;2023-04-25T09:48:25;1.48;;;1.20;;
65656;SDS011;57397;50.096;14.404;2023-04-25T09:53:39;1.50;;;1.10;;
65656;SDS011;57397;50.096;14.404;2023-04-25T09:56:06;1.45;;;1.20;;
65656;SDS011;57397;50.096;14.404;2023-04-25T09:58:33;1.65;;;1.10;;
65656;SDS011;57397;50.096;14.404;2023-04-25T10:01:00;1.60;;;1.20;;
65656;SDS011;57397;50.096;14.404;2023-04-25T10:03:29;1.63;;;1.20;;
65656;SDS011;57397;50.096;14.404;2023-04-25T10:05:57;1.73;;;1.20;;
65656;SDS011;57397;50.096;14.404;2023-04-25T10:08:24;1.25;;;1.10;;
65656;SDS011;57397;50.096;14.404;2023-04-25T10:10:51;1.45;;;1.10;;
65656;SDS011;57397;50.096;14.404;2023-04-25T10:13:20;1.20;;;1.10;;
65656;SDS011;57397;50.096;14.404;2023-04-25T10:15:45;1.30;;;1.20;;
65656;SDS011;57397;50.096;14.404;2023-04-25T10:18:11;1.60;;;1.17;;
65656;SDS011;57397;50.096;14.404;2023-04-25T10:20:37;1.23;;;1.08;;
65656;SDS011;57397;50.096;14.404;2023-04-25T10:23:05;1.40;;;1.20;;
65656;SDS011;57397;50.096;14.404;2023-04-25T10:25:33;1.80;;;1.10;;
65656;SDS011;57397;50.096;14.404;2023-04-25T10:27:59;1.30;;;1.10;;
65656;SDS011;57397;50.096;14.404;2023-04-25T10:30:27;1.95;;;1.00;;
65656;SDS011;57397;50.096;14.404;2023-04-25T10:32:52;1.30;;;1.10;;
65656;SDS011;57397;50.096;14.404;2023-04-25T10:35:27;1.50;;;1.20;;
65656;SDS011;57397;50.096;14.404;2023-04-25T10:37:57;1.13;;;0.80;;
65656;SDS011;57397;50.096;14.404;2023-04-25T10:40:30;1.00;;;0.90;;
65656;SDS011;57397;50.096;14.404;2023-04-25T10:45:55;1.20;;;0.90;;
65656;SDS011;57397;50.096;14.404;2023-04-25T10:48:25;1.20;;;0.90;;
65656;SDS011;57397;50.096;14.404;2023-04-25T10:51:08;1.10;;;0.90;;
65656;SDS011;57397;50.096;14.404;2023-04-25T10:53:34;1.13;;;0.80;;
65656;SDS011;57397;50.096;14.404;2023-04-25T10:56:00;0.80;;;0.80;;
65656;SDS011;57397;50.096;14.404;2023-04-25T10:58:42;1.08;;;0.77;;
65656;SDS011;57397;50.096;14.404;2023-04-25T11:01:08;1.38;;;0.77;;
65656;SDS011;57397;50.096;14.404;2023-04-25T11:03:40;0.95;;;0.80;;
65656;SDS011;57397;50.096;14.404;2023-04-25T11:06:22;0.80;;;0.70;;
65656;SDS011;57397;50.096;14.404;2023-04-25T11:08:52;2.10;;;0.90;;
65656;SDS011;57397;50.096;14.404;2023-04-25T11:11:18;1.52;;;0.80;;
65656;SDS011;57397;50.096;14.404;2023-04-25T11:13:47;1.08;;;0.82;;
65656;SDS011;57397;50.096;14.404;2023-04-25T11:16:13;1.05;;;0.80;;
65656;SDS011;57397;50.096;14.404;2023-04-25T11:18:42;0.80;;;0.70;;
65656;SDS011;57397;50.096;14.404;2023-04-25T11:21:08;0.80;;;0.70;;
65656;SDS011;57397;50.096;14.404;2023-04-25T11:23:34;1.42;;;0.70;;
65656;SDS011;57397;50.096;14.404;2023-04-25T11:26:00;0.90;;;0.60;;
65656;SDS011;57397;50.096;14.404;2023-04-25T11:28:26;0.80;;;0.70;;
65656;SDS011;57397;50.096;14.404;2023-04-25T11:30:52;0.80;;;0.65;;
65656;SDS011;57397;50.096;14.404;2023-04-25T11:33:18;1.10;;;0.80;;
65656;SDS011;57397;50.096;14.404;2023-04-25T11:35:48;0.68;;;0.68;;
65656;SDS011;57397;50.096;14.404;2023-04-25T11:38:16;0.95;;;0.80;;
65656;SDS011;57397;50.096;14.404;2023-04-25T11:40:42;1.35;;;0.73;;
65656;SDS011;57397;50.096;14.404;2023-04-25T11:43:07;1.35;;;0.70;;
65656;SDS011;57397;50.096;14.404;2023-04-25T11:45:34;1.35;;;0.70;;
65656;SDS011;57397;50.096;14.404;2023-04-25T11:48:02;1.00;;;0.80;;
65656;SDS011;57397;50.096;14.404;2023-04-25T11:50:28;1.17;;;0.80;;
65656;SDS011;57397;50.096;14.404;2023-04-25T11:52:55;0.80;;;0.70;;
65656;SDS011;57397;50.096;14.404;2023-04-25T11:55:21;1.20;;;0.70;;
65656;SDS011;57397;50.096;14.404;2023-04-25T11:57:48;1.00;;;0.80;;
65656;SDS011;57397;50.096;14.404;2023-04-25T12:00:19;0.68;;;0.60;;
65656;SDS011;57397;50.096;14.404;2023-04-25T12:02:46;0.70;;;0.70;;
65656;SDS011;57397;50.096;14.404;2023-04-25T12:05:14;0.93;;;0.77;;
65656;SDS011;57397;50.096;14.404;2023-04-25T12:07:44;1.50;;;0.70;;
65656;SDS011;57397;50.096;14.404;2023-04-25T12:10:11;0.90;;;0.60;;
65656;SDS011;57397;50.096;14.404;2023-04-25T12:12:38;1.05;;;0.82;;
65656;SDS011;57397;50.096;14.404;2023-04-25T12:17:48;1.27;;;0.70;;
65656;SDS011;57397;50.096;14.404;2023-04-25T12:22:42;1.00;;;0.60;;
65656;SDS011;57397;50.096;14.404;2023-04-25T12:28:16;0.90;;;0.70;;
65656;SDS011;57397;50.096;14.404;2023-04-25T12:31:06;1.13;;;0.80;;
65656;SDS011;57397;50.096;14.404;2023-04-25T12:35:58;1.20;;;0.80;;
65656;SDS011;57397;50.096;14.404;2023-04-25T12:38:30;1.75;;;0.80;;
65656;SDS011;57397;50.096;14.404;2023-04-25T12:40:56;1.60;;;0.80;;
65656;SDS011;57397;50.096;14.404;2023-04-25T12:43:23;1.73;;;0.80;;
65656;SDS011;57397;50.096;14.404;2023-04-25T12:45:49;1.15;;;0.77;;
65656;SDS011;57397;50.096;14.404;2023-04-25T12:48:18;1.10;;;0.90;;
65656;SDS011;57397;50.096;14.404;2023-04-25T12:50:45;1.52;;;0.93;;
65656;SDS011;57397;50.096;14.404;2023-04-25T12:53:14;1.10;;;0.90;;
65656;SDS011;57397;50.096;14.404;2023-04-25T12:55:40;1.10;;;0.90;;
65656;SDS011;57397;50.096;14.404;2023-04-25T12:58:06;1.20;;;0.85;;
65656;SDS011;57397;50.096;14.404;2023-04-25T13:00:31;1.30;;;0.98;;
65656;SDS011;57397;50.096;14.404;2023-04-25T13:02:57;1.20;;;1.05;;
65656;SDS011;57397;50.096;14.404;2023-04-25T13:05:22;1.25;;;0.90;;
65656;SDS011;57397;50.096;14.404;2023-04-25T13:07:48;1.13;;;0.85;;
65656;SDS011;57397;50.096;14.404;2023-04-25T13:10:14;0.98;;;0.77;;
65656;SDS011;57397;50.096;14.404;2023-04-25T13:12:39;1.20;;;0.90;;
65656;SDS011;57397;50.096;14.404;2023-04-25T13:15:05;1.05;;;0.80;;
65656;SDS011;57397;50.096;14.404;2023-04-25T13:17:34;1.52;;;0.98;;
65656;SDS011;57397;50.096;14.404;2023-04-25T13:19:59;1.48;;;0.88;;
65656;SDS011;57397;50.096;14.404;2023-04-25T13:22:25;1.27;;;0.90;;
65656;SDS011;57397;50.096;14.404;2023-04-25T13:24:50;0.77;;;0.73;;
65656;SDS011;57397;50.096;14.404;2023-04-25T13:27:16;1.10;;;0.90;;
65656;SDS011;57397;50.096;14.404;2023-04-25T13:29:41;1.30;;;1.00;;
65656;SDS011;57397;50.096;14.404;2023-04-25T13:32:08;1.20;;;0.90;;
65656;SDS011;57397;50.096;14.404;2023-04-25T13:34:34;1.55;;;0.90;;
65656;SDS011;57397;50.096;14.404;2023-04-25T13:37:00;1.40;;;1.00;;
65656;SDS011;57397;50.096;14.404;2023-04-25T13:39:25;1.45;;;0.93;;
65656;SDS011;57397;50.096;14.404;2023-04-25T13:41:51;1.13;;;1.00;;
65656;SDS011;57397;50.096;14.404;2023-04-25T13:44:16;1.00;;;0.80;;
65656;SDS011;57397;50.096;14.404;2023-04-25T13:46:42;1.27;;;0.90;;
65656;SDS011;57397;50.096;14.404;2023-04-25T13:49:07;2.30;;;1.02;;
65656;SDS011;57397;50.096;14.404;2023-04-25T13:51:33;1.13;;;0.90;;
65656;SDS011;57397;50.096;14.404;2023-04-25T13:53:59;1.00;;;0.80;;
65656;SDS011;57397;50.096;14.404;2023-04-25T13:56:25;0.98;;;0.80;;
65656;SDS011;57397;50.096;14.404;2023-04-25T13:58:51;1.25;;;0.85;;
65656;SDS011;57397;50.096;14.404;2023-04-25T14:01:17;1.30;;;1.08;;
65656;SDS011;57397;50.096;14.404;2023-04-25T14:03:43;1.38;;;1.10;;
65656;SDS011;57397;50.096;14.404;2023-04-25T14:06:09;1.83;;;0.90;;
65656;SDS011;57397;50.096;14.404;2023-04-25T14:08:36;1.52;;;1.02;;
65656;SDS011;57397;50.096;14.404;2023-04-25T14:11:02;1.60;;;1.00;;
65656;SDS011;57397;50.096;14.404;2023-04-25T14:13:28;1.27;;;1.10;;
65656;SDS011;57397;50.096;14.404;2023-04-25T14:15:53;2.40;;;1.13;;
65656;SDS011;57397;50.096;14.404;2023-04-25T14:18:19;2.92;;;1.63;;
65656;SDS011;57397;50.096;14.404;2023-04-25T14:20:45;1.80;;;1.10;;
65656;SDS011;57397;50.096;14.404;2023-04-25T14:23:11;1.73;;;1.27;;
65656;SDS011;57397;50.096;14.404;2023-04-25T14:25:36;2.05;;;1.50;;
65656;SDS011;57397;50.096;14.404;2023-04-25T14:28:02;2.90;;;1.60;;
65656;SDS011;57397;50.096;14.404;2023-04-25T14:30:28;2.00;;;1.58;;
65656;SDS011;57397;50.096;14.404;2023-04-25T14:32:53;2.33;;;1.63;;
65656;SDS011;57397;50.096;14.404;2023-04-25T14:35:19;2.65;;;1.50;;
65656;SDS011;57397;50.096;14.404;2023-04-25T14:37:45;1.98;;;1.50;;
65656;SDS011;57397;50.096;14.404;2023-04-25T14:40:11;3.33;;;1.48;;
65656;SDS011;57397;50.096;14.404;2023-04-25T14:42:38;2.60;;;1.40;;
65656;SDS011;57397;50.096;14.404;2023-04-25T14:45:05;3.17;;;1.65;;
65656;SDS011;57397;50.096;14.404;2023-04-25T14:47:34;2.55;;;1.52;;